Time;durP1;ratioP1;P1;durP2;ratioP2;P2;SDS_P1;SDS_P2;PMS_P1;PMS_P2;Temp;Humidity;BMP_temperature;BMP_pressure;BME280_temperature;BME280_humidity;BME280_pressure;Samples;Min_cycle;Max_cycle;Signal;HPM_P1;HPM_P2
2023/01/31 00:01:32;;;;;;;11.93;4.18;;;2.60;99.90;;;1.61;100.00;98114.03;5029043;28;20036;-42
2023/01/31 00:04:02;;;;;;;12.23;3.83;;;2.50;99.90;;;1.57;100.00;98118.34;5010332;28;20396;-40
2023/01/31 00:06:37;;;;;;;11.20;4.25;;;2.50;99.90;;;1.56;100.00;98115.72;5028080;28;21174;-40
2023/01/31 00:09:06;;;;;;;12.05;3.92;;;2.40;99.90;;;1.48;100.00;98115.66;5032397;28;20679;-40
2023/01/31 00:11:32;;;;;;;7.78;3.67;;;2.30;99.90;;;1.33;100.00;98106.81;5035321;28;20219;-40
2023/01/31 00:14:00;;;;;;;8.23;3.75;;;2.20;99.90;;;1.08;100.00;98099.63;5028227;28;20108;-40
2023/01/31 00:16:26;;;;;;;13.40;4.32;;;2.10;99.90;;;1.05;100.00;98102.16;5031807;28;21330;-40
2023/01/31 00:18:53;;;;;;;7.28;3.47;;;1.90;99.90;;;0.98;100.00;98101.22;5028963;28;21597;-40
2023/01/31 00:21:26;;;;;;;11.27;3.92;;;1.90;99.90;;;0.92;100.00;98098.56;5033416;28;20128;-40
2023/01/31 00:23:53;;;;;;;7.65;4.00;;;1.80;99.90;;;0.85;100.00;98101.94;5032088;28;20029;-41
2023/01/31 00:26:22;;;;;;;11.05;3.75;;;1.70;99.90;;;0.79;100.00;98113.09;5036629;28;20124;-39
2023/01/31 00:28:49;;;;;;;9.82;3.97;;;1.70;99.90;;;0.86;100.00;98099.34;5031364;28;20061;-40
2023/01/31 00:31:17;;;;;;;10.25;4.28;;;1.70;99.90;;;0.79;100.00;98101.81;5031079;28;20384;-40
2023/01/31 00:33:45;;;;;;;11.13;3.75;;;1.70;99.90;;;0.74;100.00;98109.56;5027941;28;20044;-40
2023/01/31 00:36:15;;;;;;;10.00;4.00;;;1.60;99.90;;;0.78;100.00;98100.97;5032250;28;20044;-40
2023/01/31 00:38:41;;;;;;;10.65;4.25;;;1.60;99.90;;;0.77;100.00;98101.81;5029445;28;20075;-40
2023/01/31 00:41:07;;;;;;;11.15;3.85;;;1.60;99.90;;;0.81;100.00;98095.81;5029267;28;20054;-40
2023/01/31 00:43:33;;;;;;;10.23;3.90;;;1.60;99.90;;;0.92;100.00;98098.56;5025693;28;20025;-40
2023/01/31 00:46:00;;;;;;;11.18;4.00;;;1.70;99.90;;;0.90;100.00;98095.94;5032786;28;20037;-40
2023/01/31 00:48:26;;;;;;;9.82;3.67;;;1.70;99.90;;;0.87;100.00;98088.09;5027722;28;20043;-40
2023/01/31 00:50:52;;;;;;;9.48;3.80;;;1.70;99.90;;;0.80;100.00;98083.69;5025111;28;20029;-40
2023/01/31 00:53:22;;;;;;;14.68;3.72;;;1.70;99.90;;;0.79;100.00;98091.44;5028750;28;20039;-41
2023/01/31 00:55:54;;;;;;;7.90;3.70;;;1.60;99.90;;;0.77;100.00;98078.44;5029194;28;20037;-41
2023/01/31 00:58:20;;;;;;;8.50;3.75;;;1.60;99.90;;;0.76;100.00;98085.34;5028811;28;20186;-40
2023/01/31 01:00:46;;;;;;;10.68;3.85;;;1.60;99.90;;;0.78;100.00;98084.53;5027455;28;20029;-40
2023/01/31 01:03:13;;;;;;;11.70;3.67;;;1.60;99.90;;;0.73;100.00;98077.53;5026898;28;20029;-40
2023/01/31 01:05:39;;;;;;;9.00;3.58;;;1.60;99.90;;;0.76;100.00;98095.75;5027312;28;20124;-41
2023/01/31 01:08:05;;;;;;;11.77;3.50;;;1.60;99.90;;;0.65;100.00;98063.59;5022865;28;20048;-40
2023/01/31 01:10:30;;;;;;;11.68;3.47;;;1.60;99.90;;;0.77;100.00;98094.00;5025107;28;20032;-40
2023/01/31 01:12:56;;;;;;;12.00;3.83;;;1.60;99.90;;;0.78;100.00;98080.19;5027708;28;20439;-41
2023/01/31 01:15:22;;;;;;;8.88;3.33;;;1.60;99.90;;;0.80;100.00;98086.28;5025967;28;21232;-41
2023/01/31 01:17:49;;;;;;;14.18;3.60;;;1.60;99.90;;;0.86;100.00;98088.06;5031629;28;20052;-40
2023/01/31 01:20:16;;;;;;;9.02;3.33;;;1.70;99.90;;;0.84;100.00;98084.59;5033017;28;20036;-40
2023/01/31 01:22:41;;;;;;;10.07;3.25;;;1.70;99.90;;;0.78;100.00;98074.13;5028493;28;20039;-40
2023/01/31 01:25:08;;;;;;;9.43;3.45;;;1.60;99.90;;;0.74;100.00;98088.81;5031149;28;20029;-41
2023/01/31 01:27:34;;;;;;;12.48;3.63;;;1.60;99.90;;;0.76;100.00;98087.09;5029061;28;20341;-41
2023/01/31 01:30:00;;;;;;;7.72;3.15;;;1.60;99.90;;;0.73;100.00;98082.72;5029650;28;20040;-41
2023/01/31 01:32:27;;;;;;;11.93;3.88;;;1.60;99.90;;;0.73;100.00;98093.09;5024230;28;20034;-40
2023/01/31 01:34:53;;;;;;;11.23;3.63;;;1.60;99.90;;;0.76;100.00;98085.34;5026087;28;20040;-40
2023/01/31 01:37:21;;;;;;;10.93;3.80;;;1.60;99.90;;;0.61;100.00;98071.31;5029546;28;20048;-40
2023/01/31 01:39:48;;;;;;;13.00;3.88;;;1.60;99.90;;;0.74;100.00;98094.00;5028464;28;20049;-41
2023/01/31 01:42:21;;;;;;;13.25;3.45;;;1.60;99.90;;;0.70;100.00;98084.41;5030121;28;20036;-40
2023/01/31 01:44:58;;;;;;;8.55;3.65;;;1.60;99.90;;;0.66;100.00;98095.59;5024376;28;20044;-40
2023/01/31 01:47:44;;;;;;;9.38;3.72;;;1.50;99.90;;;0.62;100.00;98099.03;5030116;28;20048;-40
2023/01/31 01:50:27;;;;;;;7.47;3.40;;;1.50;99.90;;;0.50;100.00;98094.50;5014704;28;20064;-40
2023/01/31 01:53:06;;;;;;;11.32;3.38;;;1.40;99.90;;;0.53;100.00;98100.63;5020838;28;20092;-40
2023/01/31 01:55:45;;;;;;;9.30;3.20;;;1.40;99.90;;;0.31;100.00;98086.47;5011064;28;20036;-41
2023/01/31 01:58:23;;;;;;;9.73;3.65;;;1.30;99.90;;;0.36;100.00;98110.78;5012958;28;20032;-40
2023/01/31 02:00:49;;;;;;;8.38;3.20;;;1.30;99.90;;;0.40;100.00;98108.22;5026981;28;20029;-40
2023/01/31 02:03:16;;;;;;;13.75;3.80;;;1.20;99.90;;;0.31;100.00;98108.97;5025971;28;20033;-40
2023/01/31 02:05:48;;;;;;;12.15;3.63;;;1.30;99.90;;;0.29;100.00;98102.88;5025417;28;20038;-40
2023/01/31 02:08:19;;;;;;;11.27;3.67;;;1.20;99.90;;;0.28;100.00;98098.53;5015075;28;20021;-40
2023/01/31 02:10:55;;;;;;;13.50;4.20;;;1.20;99.90;;;0.44;100.00;98099.63;5025283;28;20071;-41
2023/01/31 02:13:21;;;;;;;8.07;3.47;;;1.30;99.90;;;0.35;100.00;98090.84;5004981;28;20180;-40
2023/01/31 02:15:47;;;;;;;11.43;4.10;;;1.30;99.90;;;0.47;100.00;98104.88;5027607;28;20037;-41
2023/01/31 02:18:13;;;;;;;11.68;3.63;;;1.30;99.90;;;0.47;100.00;98095.34;5026423;28;20039;-40
2023/01/31 02:21:17;;;;;;;11.32;3.95;;;1.40;99.90;;;0.55;100.00;98111.03;5010355;28;20342;-40
2023/01/31 02:24:07;;;;;;;9.23;3.45;;;1.50;99.90;;;0.61;100.00;98113.72;5024004;28;20033;-40
2023/01/31 02:27:03;;;;;;;10.60;4.22;;;1.50;99.90;;;0.78;100.00;98116.53;5025187;28;20058;-40
2023/01/31 02:29:34;;;;;;;10.32;3.88;;;1.60;99.90;;;0.76;100.00;98126.91;5028447;28;20029;-40
2023/01/31 02:32:33;;;;;;;7.40;3.35;;;1.70;99.90;;;0.70;100.00;98131.13;5011131;28;20682;-40
2023/01/31 02:35:36;;;;;;;7.35;3.15;;;1.60;99.90;;;0.67;100.00;98138.91;5033690;28;20095;-40
2023/01/31 02:38:55;;;;;;;8.27;3.08;;;1.60;99.90;;;0.51;100.00;98119.63;5016432;28;20548;-40
2023/01/31 02:41:44;;;;;;;9.48;2.92;;;1.60;99.90;;;0.56;100.00;98137.00;5020885;28;20044;-40
2023/01/31 02:45:00;;;;;;;10.45;3.42;;;1.60;99.90;;;0.54;100.00;98151.69;5013819;28;20025;-40
2023/01/31 02:48:06;;;;;;;6.72;3.38;;;1.50;99.90;;;0.55;100.00;98147.38;5024258;28;20080;-40
2023/01/31 02:50:58;;;;;;;9.75;3.72;;;1.50;99.90;;;0.68;100.00;98133.72;5004168;28;20739;-40
2023/01/31 02:53:31;;;;;;;13.13;4.03;;;1.50;99.90;;;0.71;100.00;98145.88;5013612;28;20024;-40
2023/01/31 02:58:32;;;;;;;14.48;3.83;;;1.70;99.90;;;0.70;100.00;98154.50;5050852;28;20399;-51
2023/01/31 03:01:02;;;;;;;11.38;4.07;;;1.70;99.90;;;0.85;100.00;98148.66;5047287;28;20037;-49
2023/01/31 03:03:34;;;;;;;12.65;3.85;;;1.70;99.90;;;0.82;100.00;98144.28;5045219;28;20031;-52
2023/01/31 03:06:24;;;;;;;9.45;4.00;;;1.80;99.90;;;0.86;100.00;98148.69;5032750;28;20457;-50
2023/01/31 03:09:02;;;;;;;10.43;3.83;;;1.80;99.90;;;0.88;100.00;98151.28;5039358;28;20030;-52
2023/01/31 03:18:34;;;;;;;14.85;4.40;;;1.90;99.90;;;1.00;100.00;98137.59;5020131;28;20044;-50
2023/01/31 03:21:13;;;;;;;6.33;3.80;;;1.90;99.90;;;1.04;100.00;98149.75;5018626;28;20025;-49
2023/01/31 03:23:43;;;;;;;9.02;4.28;;;2.00;99.90;;;1.05;100.00;98144.59;5016384;28;20033;-51
2023/01/31 03:26:10;;;;;;;11.63;3.83;;;2.00;99.90;;;1.05;100.00;98147.19;5003557;28;20029;-51
2023/01/31 03:28:41;;;;;;;12.77;4.63;;;2.00;99.90;;;0.97;100.00;98133.25;5006618;28;20032;-53
2023/01/31 03:31:17;;;;;;;11.55;4.32;;;2.00;99.90;;;1.10;100.00;98149.88;5005242;28;20510;-49
2023/01/31 03:33:55;;;;;;;5.50;3.20;;;2.00;99.90;;;1.04;100.00;98148.06;5020295;28;20079;-48
2023/01/31 03:36:35;;;;;;;11.52;4.05;;;2.00;99.90;;;1.04;100.00;98148.06;5008691;28;20547;-49
2023/01/31 03:39:13;;;;;;;10.35;4.57;;;2.10;99.90;;;1.11;100.00;98162.88;5024551;28;20119;-50
2023/01/31 03:41:48;;;;;;;15.02;4.10;;;2.10;99.90;;;1.08;100.00;98165.44;5004934;28;20029;-49
2023/01/31 03:44:31;;;;;;;9.77;3.90;;;2.00;99.90;;;1.06;100.00;98168.84;5001717;28;20043;-48
2023/01/31 03:47:05;;;;;;;10.15;3.03;;;2.00;99.90;;;1.02;100.00;98164.47;5025862;28;20068;-50
2023/01/31 03:49:33;;;;;;;8.88;3.22;;;2.00;99.90;;;0.97;100.00;98166.13;5010823;28;20044;-48
2023/01/31 03:52:06;;;;;;;11.68;4.03;;;1.90;99.90;;;0.88;100.00;98159.97;5022327;28;20088;-52
2023/01/31 03:54:41;;;;;;;13.55;4.28;;;1.80;99.90;;;0.84;100.00;98162.50;5012885;28;20320;-52
2023/01/31 03:57:23;;;;;;;10.45;4.00;;;1.80;99.90;;;0.73;100.00;98158.00;5016926;28;20021;-48
2023/01/31 03:59:54;;;;;;;11.50;3.80;;;1.70;99.90;;;0.60;100.00;98160.44;5035472;28;20036;-53
2023/01/31 04:02:27;;;;;;;16.42;4.20;;;1.60;99.90;;;0.55;100.00;98166.41;5024709;28;20055;-52
2023/01/31 04:05:02;;;;;;;10.45;4.00;;;1.60;99.90;;;0.52;100.00;98171.56;5029398;28;20064;-53
2023/01/31 04:07:28;;;;;;;8.38;4.03;;;1.50;99.90;;;0.43;100.00;98171.44;5014590;28;20041;-52
2023/01/31 04:09:54;;;;;;;10.13;3.40;;;1.40;99.90;;;0.39;100.00;98172.22;5019228;28;20039;-51
2023/01/31 04:12:20;;;;;;;14.73;3.70;;;1.30;99.90;;;0.33;100.00;98179.91;5019049;28;20084;-53
2023/01/31 04:14:46;;;;;;;9.18;3.90;;;1.20;99.90;;;0.23;100.00;98185.78;5028455;28;20433;-52
2023/01/31 04:17:11;;;;;;;10.35;3.03;;;1.20;99.90;;;0.15;100.00;98186.53;5018139;28;20064;-53
2023/01/31 04:19:37;;;;;;;11.15;3.58;;;1.10;99.90;;;0.03;100.00;98182.88;5029765;28;20034;-49
2023/01/31 04:22:03;;;;;;;12.57;3.65;;;1.00;99.90;;;-0.09;100.00;98180.91;5028770;28;20032;-52
2023/01/31 04:24:28;;;;;;;13.65;4.35;;;0.90;99.90;;;-0.16;100.00;98179.06;5037341;28;20028;-52
2023/01/31 04:26:54;;;;;;;13.15;4.03;;;0.80;99.90;;;-0.25;100.00;98183.25;5027876;28;20040;-52
2023/01/31 04:29:20;;;;;;;11.02;3.65;;;0.70;99.90;;;-0.29;100.00;98178.84;5028716;28;20040;-52
2023/01/31 04:31:46;;;;;;;8.55;3.33;;;0.60;99.90;;;-0.37;100.00;98172.66;5033499;28;20033;-53
2023/01/31 04:34:11;;;;;;;8.23;3.55;;;0.60;99.90;;;-0.56;100.00;98153.28;5033503;28;20069;-54
2023/01/31 04:36:37;;;;;;;12.95;3.83;;;0.50;99.90;;;-0.44;100.00;98175.97;5032061;28;20036;-53
2023/01/31 04:39:03;;;;;;;7.47;3.40;;;0.50;99.90;;;-0.48;100.00;98176.75;5026891;28;20480;-51
2023/01/31 04:41:29;;;;;;;13.80;3.60;;;0.50;99.90;;;-0.54;100.00;98176.63;5034698;28;20030;-53
2023/01/31 04:43:54;;;;;;;9.60;3.67;;;0.40;99.90;;;-0.51;100.00;98181.88;5036262;28;20025;-54
2023/01/31 04:46:20;;;;;;;10.95;3.90;;;0.40;99.90;;;-0.50;100.00;98183.59;5039944;28;20083;-53
2023/01/31 04:48:46;;;;;;;14.20;3.80;;;0.40;99.90;;;-0.47;100.00;98175.91;5033546;28;20495;-53
2023/01/31 04:51:12;;;;;;;10.43;3.88;;;0.50;99.90;;;-0.44;100.00;98187.19;5035419;28;20033;-52
2023/01/31 04:53:37;;;;;;;8.73;4.22;;;0.50;99.90;;;-0.30;100.00;98184.88;5039064;28;20113;-50
2023/01/31 04:56:04;;;;;;;13.38;4.43;;;0.60;99.90;;;-0.25;100.00;98180.66;5038456;28;20392;-52
2023/01/31 04:58:30;;;;;;;12.80;4.00;;;0.70;99.90;;;-0.16;100.00;98181.66;5038705;28;20024;-52
2023/01/31 05:00:56;;;;;;;12.35;4.13;;;0.70;99.90;;;-0.10;100.00;98181.78;5034757;28;20033;-52
2023/01/31 05:03:22;;;;;;;10.02;3.47;;;0.80;99.90;;;-0.04;100.00;98166.31;5037063;28;20044;-54
2023/01/31 05:05:49;;;;;;;11.18;4.30;;;0.90;99.90;;;0.08;100.00;98165.66;5035371;28;20538;-53
2023/01/31 05:08:14;;;;;;;10.27;3.65;;;1.00;99.90;;;0.10;100.00;98172.59;5029115;28;20199;-54
2023/01/31 05:10:41;;;;;;;11.75;3.90;;;1.10;99.90;;;0.18;100.00;98181.41;5031060;28;20401;-52
2023/01/31 05:13:08;;;;;;;11.60;4.15;;;1.10;99.90;;;0.22;100.00;98184.06;5030072;28;20040;-53
2023/01/31 05:15:34;;;;;;;5.85;3.33;;;1.20;99.90;;;0.23;100.00;98167.63;5019066;28;20029;-54
2023/01/31 05:18:03;;;;;;;11.45;4.30;;;1.20;99.90;;;0.22;100.00;98177.16;5032913;28;20067;-54
2023/01/31 05:20:38;;;;;;;7.75;3.50;;;1.20;99.90;;;0.14;100.00;98181.31;5020148;28;20029;-53
2023/01/31 05:23:04;;;;;;;10.77;3.50;;;1.10;99.90;;;0.02;100.00;98173.31;5038811;28;20484;-52
2023/01/31 05:25:30;;;;;;;13.93;4.28;;;1.00;99.90;;;-0.02;100.00;98178.47;5035397;28;20436;-51
2023/01/31 05:27:56;;;;;;;9.73;3.97;;;0.90;99.90;;;-0.10;100.00;98174.00;4993455;28;20392;-51
2023/01/31 05:30:23;;;;;;;11.45;3.88;;;0.80;99.90;;;-0.21;100.00;98182.44;5032051;28;21256;-53
2023/01/31 05:32:49;;;;;;;6.63;3.17;;;0.80;99.90;;;-0.32;100.00;98183.97;5021168;28;20048;-52
2023/01/31 05:35:15;;;;;;;8.60;3.42;;;0.70;99.90;;;-0.42;100.00;98182.06;5022232;28;20060;-54
2023/01/31 05:37:44;;;;;;;11.25;3.90;;;0.50;99.90;;;-0.50;100.00;98186.19;5020409;28;20033;-53
2023/01/31 05:40:16;;;;;;;10.98;3.47;;;0.40;99.90;;;-0.63;100.00;98192.84;5029601;28;20051;-51
2023/01/31 05:42:42;;;;;;;10.07;3.40;;;0.40;99.90;;;-0.75;100.00;98187.44;5004118;28;20029;-54
2023/01/31 05:45:10;;;;;;;9.45;3.75;;;0.30;99.90;;;-0.81;100.00;98193.34;5028335;28;20444;-53
2023/01/31 05:47:36;;;;;;;12.60;4.30;;;0.20;99.90;;;-0.88;100.00;98188.91;5036656;28;20897;-52
2023/01/31 05:50:03;;;;;;;7.38;3.65;;;0.10;99.90;;;-0.92;100.00;98187.09;5014055;28;20852;-53
2023/01/31 05:52:29;;;;;;;12.23;4.30;;;0.10;99.90;;;-0.99;100.00;98180.91;5017922;28;20035;-53
2023/01/31 05:54:55;;;;;;;9.30;3.72;;;0.00;99.90;;;-1.03;100.00;98187.72;5022400;28;20029;-52
2023/01/31 05:57:21;;;;;;;11.73;4.30;;;0.00;99.90;;;-1.07;100.00;98191.09;5034526;28;20683;-50
2023/01/31 05:59:47;;;;;;;9.00;3.60;;;-0.10;99.90;;;-1.11;100.00;98189.28;5028144;28;20029;-52
2023/01/31 06:02:12;;;;;;;8.00;3.85;;;-0.10;99.90;;;-1.15;100.00;98179.69;5020162;28;20044;-54
2023/01/31 06:04:38;;;;;;;9.45;3.90;;;-0.10;99.90;;;-1.21;100.00;98182.16;5027246;28;20029;-52
2023/01/31 06:07:04;;;;;;;10.38;3.45;;;-0.20;99.90;;;-1.28;100.00;98180.28;5032064;28;20043;-53
2023/01/31 06:09:30;;;;;;;11.73;3.92;;;-0.20;99.90;;;-1.29;100.00;98191.44;5028587;28;20044;-53
2023/01/31 06:11:56;;;;;;;9.88;4.00;;;-0.30;99.90;;;-1.31;100.00;98194.03;5020154;28;20443;-51
2023/01/31 06:14:21;;;;;;;9.68;3.97;;;-0.30;99.90;;;-1.52;100.00;98158.19;5030593;28;20420;-54
2023/01/31 06:16:47;;;;;;;8.02;3.72;;;-0.30;99.90;;;-1.38;100.00;98190.41;5036281;28;20037;-52
2023/01/31 06:19:13;;;;;;;8.90;3.28;;;-0.30;99.90;;;-1.36;100.00;98193.06;5043450;28;20412;-50
2023/01/31 06:21:38;;;;;;;9.80;3.65;;;-0.30;99.90;;;-1.42;100.00;98187.72;5044948;28;20041;-50
2023/01/31 06:24:05;;;;;;;8.55;3.47;;;-0.40;99.90;;;-1.43;100.00;98184.25;5043321;28;20119;-54
2023/01/31 06:26:30;;;;;;;10.02;3.55;;;-0.40;99.90;;;-1.43;100.00;98194.63;5037338;28;20024;-53
2023/01/31 06:28:56;;;;;;;10.60;4.13;;;-0.40;99.90;;;-1.46;100.00;98194.53;5036660;28;20035;-52
2023/01/31 06:31:22;;;;;;;10.80;4.03;;;-0.40;99.90;;;-1.47;100.00;98194.50;5035187;28;20664;-49
2023/01/31 06:33:47;;;;;;;8.32;3.67;;;-0.40;99.90;;;-1.50;100.00;98194.44;5039105;28;20696;-51
2023/01/31 06:36:15;;;;;;;14.85;4.45;;;-0.50;99.90;;;-1.51;100.00;98197.84;5033760;28;20032;-52
2023/01/31 06:38:40;;;;;;;12.25;3.88;;;-0.50;99.90;;;-1.51;100.00;98198.72;5034131;28;20251;-52
2023/01/31 06:41:06;;;;;;;10.85;4.45;;;-0.50;99.90;;;-1.53;100.00;98187.47;5038390;28;20063;-53
2023/01/31 06:43:32;;;;;;;9.13;4.20;;;-0.50;99.90;;;-1.49;100.00;98198.75;5042608;28;20440;-50
2023/01/31 06:45:57;;;;;;;9.13;4.20;;;-0.50;99.90;;;-1.47;100.00;98210.91;5038957;28;20063;-52
2023/01/31 06:48:23;;;;;;;8.10;3.85;;;-0.50;99.90;;;-1.47;100.00;98216.09;5044234;28;20062;-52
2023/01/31 06:50:49;;;;;;;11.18;4.30;;;-0.40;99.90;;;-1.44;100.00;98216.13;5032975;28;20652;-50
2023/01/31 06:53:14;;;;;;;11.85;4.00;;;-0.50;99.90;;;-1.44;100.00;98203.19;5037076;28;20038;-51
2023/01/31 06:55:40;;;;;;;10.15;4.00;;;-0.40;99.90;;;-1.50;100.00;98195.31;5041276;28;20613;-53
2023/01/31 06:58:06;;;;;;;14.07;4.53;;;-0.40;99.90;;;-1.42;100.00;98204.13;5047763;28;20036;-51
2023/01/31 07:00:31;;;;;;;12.82;4.82;;;-0.40;99.90;;;-1.41;100.00;98198.09;5040742;28;20090;-52
2023/01/31 07:02:57;;;;;;;13.32;4.78;;;-0.40;99.90;;;-1.41;100.00;98195.50;5044046;28;20040;-54
2023/01/31 07:05:23;;;;;;;11.77;4.22;;;-0.40;99.90;;;-1.42;100.00;98196.38;5044242;28;20081;-54
2023/01/31 07:07:49;;;;;;;13.20;4.35;;;-0.40;99.90;;;-1.40;100.00;98199.88;5036608;28;20068;-50
2023/01/31 07:10:16;;;;;;;12.95;5.30;;;-0.40;99.90;;;-1.41;100.00;98180.00;5049261;28;20039;-51
2023/01/31 07:12:42;;;;;;;14.45;4.35;;;-0.30;99.90;;;-1.36;100.00;98199.09;5043867;28;20068;-50
2023/01/31 07:15:09;;;;;;;12.98;4.53;;;-0.30;99.90;;;-1.35;100.00;98206.03;5041005;28;20116;-49
2023/01/31 07:17:35;;;;;;;15.88;4.85;;;-0.30;99.90;;;-1.30;100.00;98205.25;5041853;28;20029;-52
2023/01/31 07:20:01;;;;;;;11.02;4.40;;;-0.30;99.90;;;-1.28;100.00;98193.22;5036391;28;20043;-53
2023/01/31 07:22:27;;;;;;;12.13;4.85;;;-0.30;99.90;;;-1.26;100.00;98196.72;5035963;28;20506;-51
2023/01/31 07:24:52;;;;;;;13.88;4.32;;;-0.30;99.90;;;-1.21;100.00;98195.09;5033548;28;20037;-51
2023/01/31 07:27:18;;;;;;;9.68;4.45;;;-0.30;99.90;;;-1.22;100.00;98198.50;5036808;28;20037;-53
2023/01/31 07:29:44;;;;;;;16.27;5.03;;;-0.20;99.90;;;-1.09;100.00;98200.56;5035656;28;20055;-49
2023/01/31 07:32:10;;;;;;;8.65;4.55;;;-0.20;99.90;;;-1.11;100.00;98202.25;5039112;28;20045;-50
2023/01/31 07:34:36;;;;;;;14.25;5.05;;;-0.10;99.90;;;-1.01;100.00;98204.16;5039127;28;20071;-52
2023/01/31 07:37:01;;;;;;;13.52;5.18;;;-0.10;99.90;;;-1.16;100.00;98185.72;5024612;28;20044;-50
2023/01/31 07:39:28;;;;;;;14.00;5.03;;;0.00;99.90;;;-1.01;100.00;98195.53;5038910;28;20173;-49
2023/01/31 07:41:54;;;;;;;14.30;4.60;;;0.00;99.90;;;-0.98;100.00;98214.59;5037193;28;20079;-50
2023/01/31 07:44:20;;;;;;;7.65;4.13;;;0.00;99.90;;;-0.94;100.00;98218.13;5031380;28;20098;-49
2023/01/31 07:46:45;;;;;;;12.23;4.68;;;0.10;99.90;;;-0.92;100.00;98219.03;5044121;28;20029;-50
2023/01/31 07:49:11;;;;;;;8.65;3.92;;;0.10;99.90;;;-0.88;100.00;98213.09;5034096;28;20025;-52
2023/01/31 07:51:41;;;;;;;14.27;4.40;;;0.10;99.90;;;-0.83;100.00;98218.34;5034269;28;21128;-54
2023/01/31 07:54:09;;;;;;;11.23;4.22;;;0.20;99.90;;;-0.77;100.00;98214.19;5047301;28;20144;-49
2023/01/31 07:56:35;;;;;;;14.82;4.40;;;0.20;99.90;;;-0.71;100.00;98213.44;5027163;28;20245;-52
2023/01/31 07:59:00;;;;;;;20.80;4.75;;;0.30;99.90;;;-0.61;100.00;98210.19;5047181;28;20541;-54
2023/01/31 08:04:14;;;;;;;11.48;4.00;;;0.40;99.90;;;-0.49;100.00;98221.66;5041381;28;20031;-50
2023/01/31 08:06:43;;;;;;;23.33;4.13;;;0.50;99.90;;;-0.46;100.00;98219.13;5040938;28;20073;-53
2023/01/31 08:09:09;;;;;;;17.20;5.10;;;0.60;99.90;;;-0.32;100.00;98225.44;5046791;28;20029;-51
2023/01/31 08:11:35;;;;;;;13.73;4.35;;;0.70;99.90;;;-0.22;100.00;98227.34;5049910;28;20269;-52
2023/01/31 08:14:01;;;;;;;11.55;4.00;;;0.80;99.90;;;-0.07;100.00;98226.78;5047706;28;20033;-48
2023/01/31 08:16:27;;;;;;;11.73;4.00;;;0.90;99.90;;;-0.01;100.00;98232.06;5046642;28;20036;-49
2023/01/31 08:18:53;;;;;;;13.38;4.10;;;1.00;99.90;;;0.14;100.00;98234.09;5043837;28;20041;-49
2023/01/31 08:21:19;;;;;;;13.32;4.35;;;1.10;99.90;;;0.32;100.00;98232.66;5048440;28;20048;-50
2023/01/31 08:23:45;;;;;;;11.27;4.03;;;1.30;99.90;;;0.48;100.00;98226.00;5047738;28;20028;-49
2023/01/31 08:26:18;;;;;;;15.18;4.53;;;1.50;99.90;;;0.66;100.00;98220.22;5050344;28;20091;-49
2023/01/31 08:28:46;;;;;;;9.68;3.83;;;1.60;99.90;;;0.74;100.00;98229.00;5048760;28;20021;-51
2023/01/31 08:31:21;;;;;;;9.20;3.95;;;1.70;99.90;;;0.83;100.00;98221.34;5045628;28;20031;-53
2023/01/31 08:33:50;;;;;;;8.30;3.72;;;1.80;99.90;;;1.03;100.00;98231.16;5046665;28;20029;-50
2023/01/31 08:36:22;;;;;;;8.52;3.40;;;2.00;99.90;;;1.24;100.00;98225.38;5045660;28;20024;-50
2023/01/31 08:38:48;;;;;;;11.13;3.30;;;2.20;99.90;;;1.46;100.00;98223.94;5045603;28;20029;-50
2023/01/31 08:41:16;;;;;;;10.32;3.55;;;2.30;99.90;;;1.54;100.00;98219.69;5029109;28;20036;-53
2023/01/31 08:43:43;;;;;;;12.25;3.30;;;2.50;99.90;;;1.62;100.00;98228.47;5045974;28;20052;-51
2023/01/31 08:46:10;;;;;;;14.20;3.22;;;2.60;99.90;;;1.69;100.00;98232.88;5047577;28;20040;-54
2023/01/31 08:48:37;;;;;;;11.18;3.30;;;2.60;99.90;;;1.77;100.00;98226.91;5043890;28;20075;-50
2023/01/31 08:51:06;;;;;;;8.57;2.85;;;2.70;99.90;;;1.78;100.00;98213.06;5046495;28;20043;-50
2023/01/31 08:53:33;;;;;;;11.80;3.28;;;2.70;99.90;;;1.91;100.00;98214.91;5050067;28;20443;-50
2023/01/31 08:56:01;;;;;;;13.65;3.42;;;2.80;99.90;;;1.91;100.00;98197.56;5050345;28;20029;-51
2023/01/31 08:58:27;;;;;;;10.10;3.20;;;2.90;99.90;;;2.09;100.00;98209.88;5047038;28;20033;-54
2023/01/31 09:00:53;;;;;;;10.30;3.00;;;3.00;99.90;;;2.16;100.00;98210.81;5046267;28;20047;-53
2023/01/31 09:03:19;;;;;;;7.43;2.97;;;3.10;99.90;;;2.28;100.00;98213.56;5047017;28;20431;-49
2023/01/31 09:05:45;;;;;;;8.98;2.78;;;3.20;99.90;;;2.38;100.00;98217.09;5047488;28;20032;-50
2023/01/31 09:08:11;;;;;;;11.70;3.40;;;3.30;99.90;;;2.41;100.00;98206.72;5047238;28;20036;-51
2023/01/31 09:10:37;;;;;;;16.95;3.80;;;3.30;99.90;;;2.37;100.00;98209.25;5044035;28;20115;-53
2023/01/31 09:13:03;;;;;;;10.93;3.35;;;3.30;99.90;;;2.40;100.00;98217.97;5046792;28;20033;-51
2023/01/31 09:15:28;;;;;;;13.13;3.90;;;3.40;99.90;;;2.44;100.00;98227.56;5039457;28;20130;-52
2023/01/31 09:17:54;;;;;;;10.35;3.55;;;3.40;99.90;;;2.53;100.00;98224.19;5040718;28;20041;-50
2023/01/31 09:20:20;;;;;;;12.65;3.70;;;3.40;99.90;;;2.65;100.00;98226.00;5046295;28;20029;-51
2023/01/31 09:22:45;;;;;;;8.20;3.40;;;3.50;99.90;;;2.75;100.00;98226.97;5048605;28;20064;-52
2023/01/31 09:25:11;;;;;;;7.50;3.08;;;3.70;99.90;;;2.93;100.00;98219.25;5047366;28;20139;-52
2023/01/31 09:27:38;;;;;;;9.00;3.75;;;3.90;99.90;;;3.13;100.00;98219.38;5044496;28;20204;-50
2023/01/31 09:30:06;;;;;;;11.70;3.10;;;4.00;99.90;;;3.29;100.00;98220.34;5046714;28;20025;-43
2023/01/31 09:32:32;;;;;;;10.52;3.78;;;4.20;99.90;;;3.41;100.00;98217.78;5049377;28;20081;-51
2023/01/31 09:34:58;;;;;;;12.85;3.47;;;4.30;99.90;;;3.52;100.00;98212.63;5050808;28;20119;-50
2023/01/31 09:37:23;;;;;;;10.52;3.70;;;4.50;99.90;;;3.65;100.00;98208.31;5052242;28;20404;-51
2023/01/31 09:39:49;;;;;;;8.30;3.47;;;4.60;99.90;;;3.76;100.00;98205.75;5051548;28;20028;-48
2023/01/31 09:42:27;;;;;;;8.73;3.05;;;4.70;99.90;;;3.88;100.00;98200.56;5049507;28;20060;-52
2023/01/31 09:45:00;;;;;;;11.20;3.70;;;4.80;99.90;;;3.88;100.00;98211.00;5050514;28;20036;-50
2023/01/31 09:47:33;;;;;;;12.48;4.05;;;4.80;99.90;;;3.90;100.00;98214.50;5043735;28;20054;-50
2023/01/31 09:50:25;;;;;;;15.70;4.10;;;4.90;99.90;;;3.84;100.00;98209.28;5033764;28;20063;-52
2023/01/31 09:52:50;;;;;;;14.57;3.67;;;4.80;99.90;;;3.89;100.00;98211.88;5036448;28;20190;-52
2023/01/31 09:55:23;;;;;;;11.75;3.40;;;4.80;99.90;;;3.96;100.00;98209.28;5049777;28;20587;-50
2023/01/31 09:58:00;;;;;;;12.93;3.17;;;4.90;99.90;;;4.10;100.00;98214.53;5029246;28;20539;-51
2023/01/31 10:00:34;;;;;;;12.00;3.67;;;5.00;99.90;;;4.25;100.00;98207.59;5033076;28;20578;-48
2023/01/31 10:03:09;;;;;;;14.32;3.25;;;5.10;99.90;;;4.30;100.00;98219.78;5053638;28;20021;-52
2023/01/31 10:05:48;;;;;;;8.00;3.15;;;5.20;99.90;;;4.46;100.00;98219.81;5031906;28;20021;-50
2023/01/31 10:08:24;;;;;;;7.22;2.70;;;5.30;99.90;;;4.36;100.00;98224.13;5028688;28;20120;-49
2023/01/31 10:10:53;;;;;;;6.43;2.75;;;5.40;99.90;;;4.46;100.00;98230.25;5029034;28;20476;-53
2023/01/31 10:13:43;;;;;;;10.85;2.90;;;5.30;99.90;;;4.54;100.00;98231.09;5046785;28;20510;-51
2023/01/31 10:16:28;;;;;;;9.20;3.13;;;5.40;99.90;;;4.65;100.00;98234.63;5029261;28;20029;-52
2023/01/31 10:19:10;;;;;;;7.38;2.97;;;5.50;99.90;;;4.73;100.00;98226.78;5032408;28;20035;-51
2023/01/31 10:21:49;;;;;;;9.35;3.42;;;5.60;99.90;;;4.73;100.00;98234.59;5051911;28;20027;-53
2023/01/31 10:25:13;;;;;;;10.13;3.13;;;5.60;99.90;;;4.69;100.00;98227.66;5029114;28;20029;-53
2023/01/31 10:27:48;;;;;;;7.90;2.38;;;5.60;99.90;;;4.67;100.00;98218.94;5026714;28;20072;-52
2023/01/31 10:30:19;;;;;;;9.57;2.88;;;5.60;99.90;;;4.39;100.00;98225.00;5030568;28;20036;-53
2023/01/31 10:32:54;;;;;;;8.15;2.72;;;5.40;99.90;;;4.29;100.00;98215.44;5031937;28;20044;-52
2023/01/31 10:35:29;;;;;;;10.30;2.90;;;5.30;99.90;;;4.39;100.00;98208.47;5048861;28;20052;-52
2023/01/31 10:38:06;;;;;;;8.93;2.60;;;5.40;99.90;;;4.54;100.00;98213.72;5049861;28;20056;-52
2023/01/31 10:40:38;;;;;;;10.27;2.70;;;5.50;99.90;;;4.67;98.81;98211.97;5031022;28;20052;-52
2023/01/31 10:43:22;;;;;;;8.45;3.05;;;5.70;99.90;;;4.72;98.18;98210.22;5031472;28;20044;-50